Sciota, PA (18354)

2:53 PM EDT on September 01, 2015 (GMT -0400)
Hamilton Square | | Change Station
CLOSE
Current Station
Personal Weather Station
Location: Stroudsburg, PA
Elevation: 650 ft
Nearby Weather Stations

Elev 650 ft 40.93 °N, 75.28 °W | Updated 3 minutes ago

Partly Cloudy
Partly Cloudy
88.5 °F
Feels Like 90 °F
N
3.7
Wind Variable Wind from ESE

Today
High -- | Low -- °F
--% Chance of Precip.
Yesterday
High -- | Low -- °F
Precip. -- in
6:27 AM 7:33 PM
Waning Gibbous, 87% visible
Pressure 30.09 in
Visibility 10.0 miles
Clouds Scattered Clouds 3800 ft
Heat Index 90 °F
Dew Point 64 °F
Humidity 45%
Rainfall 0.00 in
Snow Depth Not available.
UV 7 out of 12
Pollen 9.70 out of 12
Air Quality Not available.
Flu Activity Not available.
METAR KMPO 011753Z AUTO VRB05KT 10SM SCT038 26/16 A3013 RMK AO2 SLP189 T02610161 10267 20189 56009
Pressure 30.09 in
Visibility 10.0 miles
Clouds Scattered Clouds 3800 ft
Heat Index 90 °F
Dew Point 64 °F
Humidity 45%
Rainfall 0.00 in
Snow Depth Not available.
UV 7 out of 12
Pollen 9.70 out of 12
Air Quality Not available.
Flu Activity Not available.
METAR KMPO 011753Z AUTO VRB05KT 10SM SCT038 26/16 A3013 RMK AO2 SLP189 T02610161 10267 20189 56009

10-Day Weather Forecast

×

Almanac

Astronomy

Sep. 01, 2015 Rise Set
Actual Time
Civil Twilight
Nautical Twilight
Astronomical Twilight
Moon
Length of Visible Light
Length of Day
Tomorrow will be .
, % of the Moon is Illuminated

Today's Extremes

State Highs State Lows

Community

WunderPhotos

Upload Photos

1,851,593 photos uploaded!

WunderBlogs® & News

Nearby

Air Quality

  Air Quality AQ Index Pollutant
Not available.

Snow Depth

Station Depth Elevation

Earthquake Activity

City Distance Mag. Time & Date
Minimum magnitude displayed is 2.5.

Coastal Water Temperatures

Place Temperature

Stations

Nearby Weather Stations

Station Location Temp. Windchill Dew Point Humidity Wind Precip. Elev Updated Type